Time;durP1;ratioP1;P1;durP2;ratioP2;P2;SDS_P1;SDS_P2;PMS_P1;PMS_P2;Temp;Humidity;BMP_temperature;BMP_pressure;BME280_temperature;BME280_humidity;BME280_pressure;Samples;Min_cycle;Max_cycle;Signal;HPM_P1;HPM_P2
2020/12/27 09:23:35;;;;;;;92.57;61.90;;;359.20;1177.60;;;;;;5062734;28;20391;-74
2020/12/27 09:26:03;;;;;;;289.30;193.90;;;231.00;1305.60;;;;;;5051690;28;20126;-76
2020/12/27 09:28:31;;;;;;;89.15;63.80;;;205.00;1459.20;;;;;;5069101;28;20520;-79
2020/12/27 09:31:01;;;;;;;111.40;81.43;;;179.60;1561.60;;;;;;5035820;28;20021;-74
2020/12/27 09:33:30;;;;;;;124.40;81.18;;;180.00;1510.40;;;;;;5069529;28;20021;-75
2020/12/27 09:36:00;;;;;;;133.43;85.70;;;154.10;1638.40;;;;;;5069637;28;20078;-76
2020/12/27 09:38:33;;;;;;;110.57;75.30;;;128.90;1740.80;;;;;;5062794;28;20051;-76
2020/12/27 09:41:15;;;;;;;117.63;79.93;;;128.50;1766.40;;;;;;5062956;28;20043;-75
2020/12/27 09:43:54;;;;;;;125.97;87.45;;;128.10;1817.60;;;;;;5056749;28;20075;-75
2020/12/27 09:46:41;;;;;;;129.27;87.75;;;128.00;1868.80;;;;;;5056264;28;20029;-76
2020/12/27 09:49:26;;;;;;;113.63;74.90;;;103.20;1894.40;;;;;;5069920;28;20060;-75
2020/12/27 09:52:12;;;;;;;112.85;74.00;;;103.10;1894.40;;;;;;5065464;28;20025;-75
2020/12/27 09:54:40;;;;;;;100.43;65.00;;;102.90;1920.00;;;;;;5066694;28;20036;-74
2020/12/27 09:57:15;;;;;;;115.50;76.80;;;102.90;1920.00;;;;;;5068929;28;20043;-75
2020/12/27 09:59:42;;;;;;;100.07;68.10;;;102.90;1920.00;;;;;;5069481;28;20036;-75
2020/12/27 10:02:08;;;;;;;113.68;76.32;;;102.80;1920.00;;;;;;5069302;28;20041;-74
2020/12/27 10:04:34;;;;;;;111.32;72.40;;;102.80;1945.60;;;;;;5069607;28;20047;-75
2020/12/27 10:07:00;;;;;;;104.10;68.40;;;102.80;1945.60;;;;;;5069449;28;21794;-76
2020/12/27 10:09:26;;;;;;;101.13;65.35;;;102.80;1945.60;;;;;;5069251;28;20029;-77
2020/12/27 10:11:52;;;;;;;83.70;56.15;;;102.90;1945.60;;;;;;5069047;28;20159;-75
2020/12/27 10:14:18;;;;;;;104.55;69.63;;;102.70;1945.60;;;;;;5068803;28;20388;-76
2020/12/27 10:16:44;;;;;;;108.22;73.93;;;102.80;1920.00;;;;;;5068787;28;20020;-75
2020/12/27 10:19:09;;;;;;;125.80;82.85;;;102.90;1920.00;;;;;;5068687;28;20023;-75
2020/12/27 10:21:35;;;;;;;162.60;109.20;;;102.80;1945.60;;;;;;5068336;28;20053;-75
2020/12/27 10:24:01;;;;;;;215.82;141.75;;;102.60;1971.20;;;;;;5068486;28;20035;-75
2020/12/27 10:26:27;;;;;;;143.95;95.55;;;102.60;1971.20;;;;;;5068736;28;20013;-75
2020/12/27 10:28:52;;;;;;;139.93;88.65;;;102.70;1971.20;;;;;;5068802;28;20032;-75
2020/12/27 10:31:18;;;;;;;150.68;98.80;;;102.40;1996.80;;;;;;5068164;28;20039;-74
2020/12/27 10:33:44;;;;;;;143.80;95.75;;;102.50;2022.40;;;;;;5059142;28;20017;-73
2020/12/27 10:36:10;;;;;;;146.70;96.65;;;77.70;2022.40;;;;;;5055381;28;20646;-75
2020/12/27 10:38:35;;;;;;;139.10;96.35;;;102.50;1996.80;;;;;;5053894;28;20118;-74
2020/12/27 10:41:02;;;;;;;135.48;91.93;;;102.50;2022.40;;;;;;5055146;28;20025;-75
2020/12/27 10:43:28;;;;;;;132.60;90.30;;;102.60;1996.80;;;;;;5055157;28;20069;-76
2020/12/27 10:46:04;;;;;;;120.43;84.60;;;102.70;1996.80;;;;;;5055306;28;20369;-75
2020/12/27 10:48:32;;;;;;;135.55;91.53;;;102.70;1971.20;;;;;;5053268;28;20063;-76
2020/12/27 10:50:59;;;;;;;129.55;81.95;;;102.70;1971.20;;;;;;5054943;28;20028;-75
2020/12/27 10:53:24;;;;;;;127.45;82.28;;;102.70;1996.80;;;;;;5052260;28;20451;-74
2020/12/27 10:55:50;;;;;;;156.00;102.72;;;102.80;1971.20;;;;;;5055037;28;20048;-75
2020/12/27 10:58:16;;;;;;;138.18;95.32;;;102.80;1996.80;;;;;;5055039;28;20017;-75
2020/12/27 11:00:45;;;;;;;151.45;104.45;;;102.90;1996.80;;;;;;5054720;28;20028;-75
2020/12/27 11:03:13;;;;;;;184.52;121.03;;;103.00;1971.20;;;;;;5054796;28;20108;-75
2020/12/27 11:05:39;;;;;;;141.63;97.63;;;102.90;1971.20;;;;;;5054557;28;20028;-75
2020/12/27 11:08:05;;;;;;;138.48;95.78;;;102.90;1971.20;;;;;;5054819;28;20025;-75
2020/12/27 11:10:31;;;;;;;138.27;98.90;;;103.00;1971.20;;;;;;5054633;28;20029;-75
2020/12/27 11:12:57;;;;;;;126.45;83.38;;;103.00;1971.20;;;;;;5054713;28;20028;-75
2020/12/27 11:15:23;;;;;;;141.02;94.05;;;103.10;1971.20;;;;;;5054704;28;20017;-75
2020/12/27 11:17:49;;;;;;;125.85;89.85;;;103.20;1971.20;;;;;;5054752;28;20055;-74
2020/12/27 11:20:14;;;;;;;127.38;86.05;;;103.20;1971.20;;;;;;5054381;28;20448;-75
2020/12/27 11:22:43;;;;;;;121.18;84.65;;;103.00;1996.80;;;;;;5054540;28;20048;-75
2020/12/27 11:25:10;;;;;;;112.82;83.65;;;103.10;1971.20;;;;;;5054341;28;20036;-75
2020/12/27 11:27:36;;;;;;;119.78;85.07;;;103.10;1971.20;;;;;;5054305;28;20021;-74
2020/12/27 11:30:04;;;;;;;119.85;85.00;;;102.90;1996.80;;;;;;5054204;28;20024;-74
2020/12/27 11:32:30;;;;;;;135.52;93.80;;;102.90;1996.80;;;;;;5054143;28;20032;-75
2020/12/27 11:34:55;;;;;;;159.15;106.38;;;103.00;1996.80;;;;;;5054193;28;20032;-76
2020/12/27 11:37:21;;;;;;;162.38;112.72;;;102.90;1996.80;;;;;;5054436;28;20029;-73
2020/12/27 11:39:47;;;;;;;190.30;131.30;;;102.90;2022.40;;;;;;5054431;28;20024;-74
2020/12/27 11:42:13;;;;;;;163.52;108.57;;;102.80;2022.40;;;;;;5054401;28;20025;-74
2020/12/27 11:44:39;;;;;;;157.18;104.80;;;102.90;1996.80;;;;;;5053858;28;20159;-74
2020/12/27 11:47:06;;;;;;;160.82;114.63;;;103.00;1996.80;;;;;;5053836;28;20428;-76
2020/12/27 11:49:32;;;;;;;151.13;104.95;;;103.10;1996.80;;;;;;5054495;28;20056;-75
2020/12/27 11:51:58;;;;;;;162.57;113.20;;;103.10;1996.80;;;;;;5054661;28;20039;-75
2020/12/27 11:54:24;;;;;;;177.68;126.28;;;103.10;1996.80;;;;;;5054697;28;20107;-76
2020/12/27 11:56:57;;;;;;;223.32;151.63;;;103.10;1996.80;;;;;;5054052;28;20412;-76
2020/12/27 11:59:23;;;;;;;209.70;144.93;;;103.20;1996.80;;;;;;5052910;28;20492;-75
2020/12/27 12:01:49;;;;;;;213.23;150.90;;;103.20;1996.80;;;;;;5051293;28;20057;-76
2020/12/27 12:04:15;;;;;;;210.48;152.10;;;103.20;1996.80;;;;;;5054701;28;20029;-75
2020/12/27 12:06:42;;;;;;;192.00;139.60;;;103.10;2022.40;;;;;;5054682;28;20473;-76
2020/12/27 12:09:08;;;;;;;188.95;133.57;;;103.10;1996.80;;;;;;5054775;28;20044;-75
2020/12/27 12:11:35;;;;;;;159.75;105.85;;;103.00;1996.80;;;;;;5054401;28;20040;-76
2020/12/27 12:14:00;;;;;;;143.57;100.50;;;103.00;2022.40;;;;;;5054325;28;20017;-75
2020/12/27 12:16:27;;;;;;;199.93;123.45;;;103.00;1996.80;;;;;;5054049;28;20040;-76
2020/12/27 12:18:53;;;;;;;184.20;117.05;;;103.20;1996.80;;;;;;5054218;28;20021;-76
2020/12/27 12:21:19;;;;;;;173.95;107.25;;;103.10;1996.80;;;;;;5054228;28;20473;-75
2020/12/27 12:23:45;;;;;;;187.55;123.00;;;103.10;1996.80;;;;;;5054019;28;20060;-75
2020/12/27 12:26:18;;;;;;;173.20;114.88;;;103.10;1996.80;;;;;;5053960;28;20013;-76
2020/12/27 12:28:43;;;;;;;232.45;150.27;;;103.10;1996.80;;;;;;5054113;28;20033;-75
2020/12/27 12:31:13;;;;;;;187.52;124.93;;;103.10;1996.80;;;;;;5053808;28;20021;-75
2020/12/27 12:33:39;;;;;;;160.70;111.68;;;103.20;2022.40;;;;;;5053807;28;20439;-75
2020/12/27 12:36:05;;;;;;;158.77;113.03;;;103.20;2022.40;;;;;;5053761;28;20059;-75
2020/12/27 12:38:32;;;;;;;185.30;131.48;;;103.20;2022.40;;;;;;5053922;28;20473;-75
2020/12/27 12:40:58;;;;;;;184.15;130.15;;;103.30;2022.40;;;;;;5053773;28;20029;-75
2020/12/27 12:43:24;;;;;;;176.02;122.82;;;103.20;2022.40;;;;;;5053874;28;20140;-75
2020/12/27 12:45:50;;;;;;;178.82;123.07;;;103.00;2048.00;;;;;;5053585;28;20048;-76
2020/12/27 12:48:15;;;;;;;265.77;160.00;;;102.90;2073.60;;;;;;5053447;28;20059;-75
2020/12/27 12:50:41;;;;;;;194.45;128.82;;;102.90;2048.00;;;;;;5053684;28;20047;-75
2020/12/27 12:53:07;;;;;;;177.13;124.10;;;103.00;2048.00;;;;;;5053577;28;20358;-75
2020/12/27 12:55:33;;;;;;;212.88;150.07;;;103.00;2048.00;;;;;;5053644;28;20075;-75
2020/12/27 12:57:59;;;;;;;212.27;150.10;;;103.00;2048.00;;;;;;5053067;28;20497;-76
2020/12/27 13:00:25;;;;;;;124.13;89.57;;;102.90;2048.00;;;;;;5053443;28;20141;-75
2020/12/27 13:02:50;;;;;;;81.15;58.20;;;102.90;2048.00;;;;;;5053209;28;20037;-76
2020/12/27 13:05:16;;;;;;;55.10;39.00;;;102.80;2073.60;;;;;;5053425;28;20021;-75
2020/12/27 13:07:42;;;;;;;68.15;44.35;;;102.80;2073.60;;;;;;5053716;28;20485;-76
2020/12/27 13:10:08;;;;;;;56.88;38.00;;;102.70;2073.60;;;;;;5053312;28;20024;-75
2020/12/27 13:12:33;;;;;;;70.05;38.05;;;102.70;2099.20;;;;;;5053210;28;20052;-75
2020/12/27 13:14:59;;;;;;;50.67;34.42;;;102.70;2099.20;;;;;;5053304;28;20477;-76
2020/12/27 13:17:25;;;;;;;51.53;36.13;;;102.60;2124.80;;;;;;5053172;28;20035;-75
2020/12/27 13:19:50;;;;;;;39.63;30.15;;;102.60;2124.80;;;;;;5053185;28;20139;-75
2020/12/27 13:22:16;;;;;;;49.53;36.80;;;102.60;2124.80;;;;;;5053110;28;20440;-74
2020/12/27 13:24:43;;;;;;;47.13;31.73;;;102.50;2150.40;;;;;;5053252;28;20018;-76
2020/12/27 13:27:08;;;;;;;43.42;27.70;;;102.40;2150.40;;;;;;5053008;28;20025;-75
2020/12/27 13:29:35;;;;;;;58.65;36.58;;;77.70;2150.40;;;;;;5053153;28;20359;-75
2020/12/27 13:32:00;;;;;;;40.97;27.45;;;77.70;2176.00;;;;;;5053228;28;20108;-75
2020/12/27 13:34:26;;;;;;;79.65;49.35;;;77.60;2176.00;;;;;;5053122;28;20108;-75
2020/12/27 13:36:52;;;;;;;44.83;30.67;;;77.60;2176.00;;;;;;5053127;28;20541;-75
2020/12/27 13:39:17;;;;;;;42.80;28.60;;;77.50;2201.60;;;;;;5053023;28;20074;-75
2020/12/27 13:41:43;;;;;;;45.80;30.70;;;77.50;2201.60;;;;;;5052877;28;20115;-75
2020/12/27 13:44:09;;;;;;;46.22;29.73;;;77.60;2201.60;;;;;;5053137;28;20021;-75
2020/12/27 13:46:36;;;;;;;48.05;33.92;;;77.60;2201.60;;;;;;5053086;28;20534;-75
2020/12/27 13:49:02;;;;;;;34.58;25.08;;;77.60;2201.60;;;;;;5052761;28;20021;-75
2020/12/27 13:51:28;;;;;;;35.55;25.35;;;77.50;2201.60;;;;;;5053072;28;20110;-75
2020/12/27 13:53:54;;;;;;;39.60;28.20;;;77.50;2201.60;;;;;;5052809;28;20452;-75
2020/12/27 13:56:26;;;;;;;46.70;32.00;;;77.60;2201.60;;;;;;5053025;28;20039;-75
2020/12/27 13:58:53;;;;;;;49.17;33.72;;;77.50;2201.60;;;;;;5052935;28;20021;-75
2020/12/27 14:01:19;;;;;;;63.35;41.60;;;77.60;2201.60;;;;;;5052749;28;20048;-74
2020/12/27 14:03:48;;;;;;;56.50;35.72;;;77.60;2201.60;;;;;;5051496;28;20524;-75
2020/12/27 14:06:14;;;;;;;60.92;42.33;;;77.60;2201.60;;;;;;5052920;28;20076;-75
2020/12/27 14:08:40;;;;;;;68.05;45.15;;;77.70;2201.60;;;;;;5053644;28;20146;-75
2020/12/27 14:11:11;;;;;;;52.22;38.03;;;77.70;2201.60;;;;;;5056676;28;20063;-75
2020/12/27 14:13:38;;;;;;;45.00;30.75;;;77.70;2201.60;;;;;;5055239;28;20029;-75
2020/12/27 14:16:04;;;;;;;42.63;31.17;;;77.60;2201.60;;;;;;5056464;28;20029;-76
2020/12/27 14:18:30;;;;;;;46.38;32.40;;;77.60;2201.60;;;;;;5056242;28;20021;-75
2020/12/27 14:20:56;;;;;;;44.97;30.98;;;77.70;2201.60;;;;;;5056314;28;20029;-75
2020/12/27 14:23:21;;;;;;;42.90;29.88;;;102.40;2201.60;;;;;;5056063;28;20052;-75
2020/12/27 14:25:47;;;;;;;32.90;23.10;;;77.70;2176.00;;;;;;5056424;28;20044;-76
2020/12/27 14:28:13;;;;;;;48.10;32.58;;;77.70;2201.60;;;;;;5056248;28;20389;-76
2020/12/27 14:30:38;;;;;;;52.50;39.42;;;102.40;2201.60;;;;;;5056238;28;20036;-75
2020/12/27 14:33:04;;;;;;;49.97;42.63;;;102.40;2176.00;;;;;;5055947;28;20029;-75
2020/12/27 14:35:30;;;;;;;42.05;32.70;;;102.40;2176.00;;;;;;5056098;28;20092;-74
2020/12/27 14:37:55;;;;;;;52.15;34.45;;;77.70;2201.60;;;;;;5055923;28;20033;-75
2020/12/27 14:40:21;;;;;;;47.40;28.83;;;77.70;2201.60;;;;;;5055930;28;20101;-75
2020/12/27 14:42:47;;;;;;;41.40;27.95;;;77.70;2176.00;;;;;;5055800;28;20115;-75
2020/12/27 14:45:12;;;;;;;49.63;33.92;;;77.70;2201.60;;;;;;5055792;28;20461;-76
2020/12/27 14:47:39;;;;;;;53.88;35.38;;;77.70;2201.60;;;;;;5055716;28;20029;-75
2020/12/27 14:50:05;;;;;;;55.13;37.08;;;77.70;2201.60;;;;;;5055975;28;20104;-75
2020/12/27 14:52:30;;;;;;;60.33;42.10;;;77.70;2201.60;;;;;;5055824;28;20060;-75
2020/12/27 14:54:56;;;;;;;61.30;42.67;;;77.70;2201.60;;;;;;5055635;28;20017;-75
2020/12/27 14:57:22;;;;;;;80.03;59.03;;;102.40;2201.60;;;;;;5055619;28;20486;-76
2020/12/27 14:59:47;;;;;;;79.35;55.20;;;102.40;2201.60;;;;;;5055741;28;20100;-76
2020/12/27 15:02:13;;;;;;;90.93;62.92;;;102.40;2176.00;;;;;;5055601;28;20037;-74
2020/12/27 15:04:39;;;;;;;52.95;39.67;;;102.40;2201.60;;;;;;5055292;28;20021;-76
2020/12/27 15:07:05;;;;;;;59.63;43.03;;;102.40;2176.00;;;;;;5055639;28;20029;-76
2020/12/27 15:09:30;;;;;;;57.80;39.58;;;77.70;2201.60;;;;;;5053936;28;20032;-75
2020/12/27 15:11:56;;;;;;;59.55;46.63;;;77.70;2201.60;;;;;;5055375;28;20021;-76
2020/12/27 15:14:22;;;;;;;57.63;44.60;;;77.70;2201.60;;;;;;5055354;28;20036;-76
2020/12/27 15:16:47;;;;;;;57.75;44.03;;;77.70;2201.60;;;;;;5055228;28;20032;-74
2020/12/27 15:19:13;;;;;;;46.72;36.20;;;102.40;2201.60;;;;;;5055203;28;20036;-76
2020/12/27 15:21:39;;;;;;;46.50;35.70;;;77.70;2201.60;;;;;;5055090;28;20021;-74
2020/12/27 15:24:05;;;;;;;54.08;36.65;;;77.70;2201.60;;;;;;5055299;28;20037;-75
2020/12/27 15:26:31;;;;;;;55.53;36.28;;;77.70;2201.60;;;;;;5055137;28;20029;-75
2020/12/27 15:28:56;;;;;;;61.83;43.60;;;77.70;2201.60;;;;;;5055207;28;20024;-74
2020/12/27 15:31:22;;;;;;;55.45;35.90;;;102.40;2201.60;;;;;;5055331;28;20025;-75
2020/12/27 15:33:48;;;;;;;43.75;30.80;;;102.40;2201.60;;;;;;5054916;28;20033;-75
2020/12/27 15:36:13;;;;;;;56.33;38.08;;;102.50;2176.00;;;;;;5054842;28;20025;-75
2020/12/27 15:38:39;;;;;;;56.30;36.05;;;102.60;2176.00;;;;;;5055046;28;20021;-75
2020/12/27 15:41:05;;;;;;;46.40;31.90;;;102.60;2176.00;;;;;;5055109;28;20021;-75
2020/12/27 15:43:31;;;;;;;42.58;29.77;;;102.60;2176.00;;;;;;5054960;28;20033;-75
2020/12/27 15:45:57;;;;;;;45.25;32.78;;;102.60;2176.00;;;;;;5055036;28;20055;-76
2020/12/27 15:48:22;;;;;;;42.30;32.00;;;102.60;2176.00;;;;;;5054701;28;20086;-75
2020/12/27 15:50:48;;;;;;;48.55;33.15;;;102.70;2176.00;;;;;;5054617;28;20047;-75
2020/12/27 15:53:14;;;;;;;49.33;33.00;;;102.60;2176.00;;;;;;5054671;28;20088;-75
2020/12/27 15:55:39;;;;;;;31.67;21.92;;;102.70;2176.00;;;;;;5054634;28;20033;-74
2020/12/27 15:58:06;;;;;;;33.00;24.15;;;102.60;2176.00;;;;;;5054605;28;20100;-75
2020/12/27 16:00:37;;;;;;;38.70;27.52;;;102.70;2176.00;;;;;;5054660;28;20025;-75
2020/12/27 16:03:06;;;;;;;42.17;29.15;;;102.70;2176.00;;;;;;5054499;28;20116;-75
2020/12/27 16:05:32;;;;;;;41.45;28.65;;;102.60;2176.00;;;;;;5054393;28;20032;-75
2020/12/27 16:07:58;;;;;;;39.70;29.77;;;102.60;2176.00;;;;;;5054432;28;20021;-76
2020/12/27 16:10:23;;;;;;;29.77;20.90;;;102.60;2176.00;;;;;;5054598;28;20035;-75
2020/12/27 16:12:49;;;;;;;23.83;17.35;;;102.60;2176.00;;;;;;5054417;28;20062;-75
2020/12/27 16:15:15;;;;;;;37.45;25.92;;;102.50;2176.00;;;;;;5054447;28;20377;-75
2020/12/27 16:17:40;;;;;;;36.05;23.48;;;102.50;2201.60;;;;;;5054170;28;20025;-75
2020/12/27 16:20:06;;;;;;;44.10;33.05;;;102.50;2201.60;;;;;;5054063;28;20028;-74
2020/12/27 16:22:32;;;;;;;41.92;32.88;;;102.50;2201.60;;;;;;5053915;28;20521;-75
2020/12/27 16:24:58;;;;;;;41.15;31.48;;;102.60;2201.60;;;;;;5054043;28;20025;-75
2020/12/27 16:27:23;;;;;;;38.00;28.92;;;102.60;2201.60;;;;;;5054136;28;20112;-76
2020/12/27 16:29:49;;;;;;;45.10;35.33;;;102.60;2201.60;;;;;;5053772;28;20017;-75
2020/12/27 16:32:16;;;;;;;28.30;21.25;;;102.60;2201.60;;;;;;5052094;28;20041;-74
2020/12/27 16:34:42;;;;;;;36.42;26.05;;;102.60;2176.00;;;;;;5053853;28;20032;-75
2020/12/27 16:37:08;;;;;;;31.02;20.52;;;102.60;2201.60;;;;;;5053720;28;20021;-75
2020/12/27 16:39:34;;;;;;;36.03;26.70;;;102.60;2176.00;;;;;;5054009;28;20385;-76
2020/12/27 16:42:01;;;;;;;34.03;22.38;;;102.70;2176.00;;;;;;5053779;28;20385;-75
2020/12/27 16:44:26;;;;;;;39.60;27.38;;;102.70;2201.60;;;;;;5053679;28;20523;-75
2020/12/27 16:46:53;;;;;;;46.83;33.22;;;102.70;2176.00;;;;;;5053813;28;20109;-75
2020/12/27 16:49:19;;;;;;;30.75;20.17;;;102.70;2201.60;;;;;;5053600;28;20025;-75
2020/12/27 16:51:50;;;;;;;33.80;22.83;;;102.70;2176.00;;;;;;5053531;28;20453;-75
2020/12/27 16:54:16;;;;;;;28.27;19.75;;;102.60;2201.60;;;;;;5053576;28;20535;-75
2020/12/27 16:56:42;;;;;;;29.17;18.75;;;102.60;2201.60;;;;;;5053530;28;20083;-74
2020/12/27 16:59:08;;;;;;;25.30;19.13;;;102.60;2201.60;;;;;;5053620;28;20444;-75
2020/12/27 17:01:35;;;;;;;33.47;21.77;;;102.60;2201.60;;;;;;5053451;28;20113;-75
2020/12/27 17:04:02;;;;;;;36.28;24.05;;;102.60;2201.60;;;;;;5053459;28;20021;-74
2020/12/27 17:06:28;;;;;;;30.40;21.23;;;102.60;2201.60;;;;;;5053315;28;20108;-74
2020/12/27 17:08:54;;;;;;;33.55;21.60;;;102.60;2201.60;;;;;;5053362;28;20052;-73
2020/12/27 17:11:21;;;;;;;32.50;22.42;;;102.60;2201.60;;;;;;5053179;28;20063;-74
2020/12/27 17:13:47;;;;;;;32.25;24.70;;;102.50;2201.60;;;;;;5053182;28;20117;-75
2020/12/27 17:16:13;;;;;;;29.52;22.02;;;102.50;2201.60;;;;;;5053428;28;20021;-74
2020/12/27 17:18:39;;;;;;;26.88;22.63;;;102.60;2201.60;;;;;;5053173;28;20025;-75
2020/12/27 17:21:06;;;;;;;19.75;14.52;;;102.60;2201.60;;;;;;5053089;28;20104;-74
2020/12/27 17:23:31;;;;;;;21.42;16.00;;;102.60;2201.60;;;;;;5053015;28;20079;-75
2020/12/27 17:25:57;;;;;;;22.17;16.02;;;102.60;2201.60;;;;;;5053019;28;20045;-74
2020/12/27 17:28:23;;;;;;;32.25;21.48;;;102.60;2201.60;;;;;;5053124;28;20028;-75
2020/12/27 17:30:49;;;;;;;20.08;16.48;;;102.60;2201.60;;;;;;5053136;28;20381;-75
2020/12/27 17:33:14;;;;;;;30.20;20.35;;;102.60;2201.60;;;;;;5053059;28;20512;-74
2020/12/27 17:35:41;;;;;;;27.60;19.27;;;102.60;2201.60;;;;;;5051683;28;20481;-74
2020/12/27 17:38:06;;;;;;;23.33;17.08;;;102.60;2201.60;;;;;;5053076;28;20029;-74
2020/12/27 17:40:32;;;;;;;28.80;20.90;;;102.60;2201.60;;;;;;5053103;28;20346;-75
2020/12/27 17:42:58;;;;;;;33.95;24.60;;;102.70;2201.60;;;;;;5053089;28;20075;-75
2020/12/27 17:45:28;;;;;;;33.10;22.65;;;102.70;2201.60;;;;;;5057183;28;20388;-74
2020/12/27 17:47:54;;;;;;;32.95;22.25;;;102.60;2201.60;;;;;;5056974;28;20147;-74
2020/12/27 17:50:19;;;;;;;31.77;22.67;;;102.60;2201.60;;;;;;5057030;28;20021;-73
2020/12/27 17:52:45;;;;;;;26.50;18.98;;;102.60;2201.60;;;;;;5056998;28;20029;-75
2020/12/27 17:55:11;;;;;;;35.38;22.60;;;102.60;2201.60;;;;;;5057007;28;20415;-74
2020/12/27 17:57:36;;;;;;;26.23;17.63;;;102.60;2227.20;;;;;;5056774;28;20031;-75
2020/12/27 18:00:03;;;;;;;32.85;22.15;;;102.60;2227.20;;;;;;5056885;28;20051;-75
2020/12/27 18:02:31;;;;;;;28.55;19.23;;;102.60;2227.20;;;;;;5056755;28;20071;-74
2020/12/27 18:04:57;;;;;;;38.88;26.95;;;102.50;2227.20;;;;;;5056655;28;20025;-75
2020/12/27 18:07:22;;;;;;;31.20;21.58;;;102.70;2227.20;;;;;;5056565;28;20115;-75
2020/12/27 18:09:48;;;;;;;34.35;21.17;;;102.60;2227.20;;;;;;5056498;28;20056;-74
2020/12/27 18:12:14;;;;;;;33.25;23.90;;;102.70;2227.20;;;;;;5056075;28;20067;-74
2020/12/27 18:14:40;;;;;;;35.55;26.35;;;102.70;2227.20;;;;;;5056319;28;20024;-74
2020/12/27 18:17:05;;;;;;;26.30;19.75;;;102.70;2227.20;;;;;;5056492;28;20039;-74
2020/12/27 18:19:31;;;;;;;27.90;20.20;;;102.70;2227.20;;;;;;5055337;28;20112;-74
2020/12/27 18:21:58;;;;;;;33.17;23.33;;;102.70;2227.20;;;;;;5055837;28;20492;-74
2020/12/27 18:24:24;;;;;;;33.60;23.63;;;102.70;2227.20;;;;;;5056619;28;20033;-73
2020/12/27 18:26:49;;;;;;;36.88;24.88;;;102.70;2227.20;;;;;;5056351;28;20021;-74
2020/12/27 18:29:15;;;;;;;32.83;23.40;;;102.70;2227.20;;;;;;5056579;28;20033;-73
2020/12/27 18:31:48;;;;;;;39.45;28.75;;;102.80;2227.20;;;;;;5056302;28;20052;-75
2020/12/27 18:34:14;;;;;;;58.35;40.10;;;102.90;2201.60;;;;;;5055771;28;20044;-74
2020/12/27 18:36:39;;;;;;;46.03;33.13;;;102.90;2227.20;;;;;;5055450;28;20445;-74
2020/12/27 18:39:05;;;;;;;149.57;74.68;;;102.90;2201.60;;;;;;5055633;28;20025;-74
2020/12/27 18:41:31;;;;;;;168.23;79.90;;;102.90;2201.60;;;;;;5055495;28;20370;-74
2020/12/27 18:43:57;;;;;;;31.55;21.65;;;102.90;2201.60;;;;;;5055664;28;20029;-74
2020/12/27 18:46:23;;;;;;;30.70;22.17;;;102.90;2201.60;;;;;;5053018;28;20550;-74
2020/12/27 18:48:49;;;;;;;27.35;21.40;;;102.90;2227.20;;;;;;5055602;28;20028;-74
2020/12/27 18:51:17;;;;;;;53.58;37.53;;;102.80;2227.20;;;;;;5055085;28;20021;-74
2020/12/27 18:53:42;;;;;;;50.42;36.03;;;102.90;2227.20;;;;;;5052776;28;20021;-74
2020/12/27 18:56:16;;;;;;;31.05;22.02;;;102.90;2227.20;;;;;;5054861;28;20131;-74
2020/12/27 18:58:42;;;;;;;35.50;26.52;;;102.90;2201.60;;;;;;5055321;28;20075;-75
2020/12/27 19:01:13;;;;;;;41.72;29.45;;;102.90;2201.60;;;;;;5055240;28;20384;-73
2020/12/27 19:03:40;;;;;;;52.85;33.50;;;103.00;2201.60;;;;;;5054914;28;20477;-75
2020/12/27 19:06:07;;;;;;;78.30;51.38;;;102.90;2201.60;;;;;;5054920;28;20017;-75
2020/12/27 19:08:33;;;;;;;51.35;33.45;;;103.00;2201.60;;;;;;5055233;28;20474;-75
2020/12/27 19:10:59;;;;;;;56.70;35.20;;;103.00;2201.60;;;;;;5055500;28;20060;-75
2020/12/27 19:13:28;;;;;;;48.95;32.58;;;103.00;2201.60;;;;;;5055622;28;20099;-75
2020/12/27 19:15:57;;;;;;;51.15;34.60;;;102.90;2227.20;;;;;;5055357;28;20465;-75
2020/12/27 19:18:25;;;;;;;55.03;36.70;;;102.90;2227.20;;;;;;5054767;28;20037;-74
2020/12/27 19:20:51;;;;;;;42.45;27.80;;;102.90;2227.20;;;;;;5055115;28;20029;-75
2020/12/27 19:23:17;;;;;;;40.53;27.20;;;102.90;2227.20;;;;;;5055161;28;20134;-75
2020/12/27 19:25:42;;;;;;;60.05;41.33;;;102.90;2227.20;;;;;;5055316;28;20021;-75
2020/12/27 19:28:08;;;;;;;52.85;37.13;;;102.90;2227.20;;;;;;5054970;28;20028;-75
2020/12/27 19:30:36;;;;;;;43.47;32.25;;;102.90;2227.20;;;;;;5054256;28;20033;-75
2020/12/27 19:33:03;;;;;;;60.97;43.03;;;103.00;2227.20;;;;;;5055007;28;20025;-75
2020/12/27 19:35:29;;;;;;;66.60;44.22;;;103.00;2201.60;;;;;;5054893;28;20477;-75
2020/12/27 19:37:56;;;;;;;50.10;34.38;;;102.90;2201.60;;;;;;5053723;28;20071;-75
2020/12/27 19:40:22;;;;;;;34.17;24.60;;;102.90;2201.60;;;;;;5053928;28;20429;-75
2020/12/27 19:42:47;;;;;;;44.78;33.17;;;102.90;2201.60;;;;;;5054722;28;20033;-75
2020/12/27 19:45:13;;;;;;;42.78;32.63;;;102.90;2201.60;;;;;;5054801;28;20029;-75
2020/12/27 19:47:39;;;;;;;50.30;34.70;;;102.90;2227.20;;;;;;5054782;28;20474;-75
2020/12/27 19:50:05;;;;;;;38.22;25.92;;;102.90;2201.60;;;;;;5054133;28;20025;-75
2020/12/27 19:52:30;;;;;;;44.72;32.80;;;102.90;2201.60;;;;;;5054131;28;20489;-75
2020/12/27 19:54:56;;;;;;;35.80;27.55;;;102.90;2201.60;;;;;;5054253;28;20032;-75
2020/12/27 19:57:24;;;;;;;54.08;38.40;;;102.90;2201.60;;;;;;5054209;28;20036;-75
2020/12/27 19:59:51;;;;;;;46.47;31.92;;;103.00;2201.60;;;;;;5054030;28;20528;-75
2020/12/27 20:02:17;;;;;;;56.70;38.10;;;103.00;2201.60;;;;;;5054109;28;20432;-75
2020/12/27 20:04:43;;;;;;;40.70;27.83;;;103.00;2201.60;;;;;;5053770;28;20029;-75
2020/12/27 20:07:09;;;;;;;49.88;37.45;;;103.10;2201.60;;;;;;5053091;28;20071;-75
2020/12/27 20:09:34;;;;;;;47.88;32.47;;;103.10;2201.60;;;;;;5054092;28;20021;-75
2020/12/27 20:12:00;;;;;;;41.70;28.65;;;103.20;2201.60;;;;;;5054056;28;20024;-75
2020/12/27 20:14:26;;;;;;;35.40;24.67;;;103.20;2176.00;;;;;;5053236;28;20025;-74
2020/12/27 20:16:55;;;;;;;116.05;64.07;;;103.20;2176.00;;;;;;5054185;28;20024;-75
2020/12/27 20:19:20;;;;;;;527.78;216.27;;;103.30;2176.00;;;;;;5053979;28;20032;-75
2020/12/27 20:21:47;;;;;;;542.72;303.05;;;103.30;2176.00;;;;;;5053829;28;20017;-75
2020/12/27 20:24:13;;;;;;;278.13;148.25;;;103.30;2176.00;;;;;;5054315;28;20021;-76
2020/12/27 20:26:39;;;;;;;398.38;192.57;;;103.30;2201.60;;;;;;5054042;28;20416;-75
2020/12/27 20:29:05;;;;;;;193.90;114.68;;;103.30;2201.60;;;;;;5053805;28;20032;-75
2020/12/27 20:31:30;;;;;;;144.95;104.40;;;103.20;2201.60;;;;;;5054144;28;20021;-76
2020/12/27 20:33:56;;;;;;;79.03;51.83;;;103.20;2201.60;;;;;;5053877;28;20025;-75
2020/12/27 20:36:22;;;;;;;102.85;73.45;;;103.30;2176.00;;;;;;5053747;28;20492;-75
2020/12/27 20:38:49;;;;;;;44.92;32.85;;;103.30;2201.60;;;;;;5053838;28;20025;-75
2020/12/27 20:41:15;;;;;;;40.10;27.98;;;103.20;2201.60;;;;;;5053931;28;20067;-75
2020/12/27 20:43:41;;;;;;;45.95;32.92;;;103.10;2201.60;;;;;;5053476;28;20033;-75
2020/12/27 20:46:07;;;;;;;42.13;31.00;;;103.20;2201.60;;;;;;5053751;28;20047;-75
2020/12/27 20:48:34;;;;;;;51.63;38.45;;;103.20;2201.60;;;;;;5053689;28;20516;-75
2020/12/27 20:51:00;;;;;;;73.20;51.90;;;103.20;2201.60;;;;;;5053433;28;20469;-75
2020/12/27 20:53:25;;;;;;;81.18;56.65;;;103.20;2201.60;;;;;;5053814;28;20029;-75
2020/12/27 20:55:54;;;;;;;85.18;58.90;;;103.30;2201.60;;;;;;5053523;28;20021;-75
2020/12/27 20:58:20;;;;;;;78.53;55.35;;;103.20;2201.60;;;;;;5053162;28;20025;-76
2020/12/27 21:00:45;;;;;;;79.82;52.80;;;103.20;2201.60;;;;;;5053595;28;20054;-74
2020/12/27 21:03:11;;;;;;;56.97;40.20;;;103.30;2201.60;;;;;;5051687;28;20037;-75
2020/12/27 21:05:37;;;;;;;53.70;39.42;;;103.30;2176.00;;;;;;5052724;28;20025;-75
2020/12/27 21:08:02;;;;;;;55.97;41.17;;;128.00;2201.60;;;;;;5052873;28;20028;-76
2020/12/27 21:10:28;;;;;;;54.33;39.70;;;128.10;2201.60;;;;;;5053000;28;20021;-75
2020/12/27 21:12:55;;;;;;;107.93;68.40;;;128.00;2227.20;;;;;;5052838;28;20021;-75
2020/12/27 21:15:20;;;;;;;52.60;34.72;;;128.00;2227.20;;;;;;5052469;28;20509;-75